Time;durP1;ratioP1;P1;durP2;ratioP2;P2;SDS_P1;SDS_P2;PMS_P1;PMS_P2;Temp;Humidity;BMP_temperature;BMP_pressure;BME280_temperature;BME280_humidity;BME280_pressure;Samples;Min_cycle;Max_cycle;Signal;HPM_P1;HPM_P2
2022/05/22 00:01:07;;;;;;;3.72;2.65;;;;;;;13.68;63.88;99114.72;2622702;54;20038;-64
2022/05/22 00:03:39;;;;;;;3.25;2.50;;;;;;;13.54;64.57;99111.22;2624001;54;20038;-64
2022/05/22 00:06:09;;;;;;;3.90;2.60;;;;;;;13.57;64.47;99116.16;2622907;54;20030;-64
2022/05/22 00:08:39;;;;;;;3.95;3.05;;;;;;;13.54;64.89;99121.03;2622405;54;20569;-64
2022/05/22 00:11:08;;;;;;;4.18;2.20;;;;;;;13.53;64.80;99108.78;2621897;54;20545;-66
2022/05/22 00:13:38;;;;;;;3.00;2.42;;;;;;;13.57;64.69;99110.03;2621689;54;20023;-66
2022/05/22 00:18:53;;;;;;;4.05;2.83;;;;;;;13.76;64.42;99111.03;2622085;54;20037;-64
2022/05/22 00:21:22;;;;;;;4.25;2.63;;;;;;;13.81;63.84;99101.41;2622283;54;20030;-65
2022/05/22 00:23:52;;;;;;;7.43;2.80;;;;;;;13.69;64.04;99097.75;2621845;54;20106;-64
2022/05/22 00:26:21;;;;;;;5.03;2.53;;;;;;;13.64;63.98;99100.22;2621701;54;20042;-63
2022/05/22 00:28:51;;;;;;;4.25;3.28;;;;;;;13.47;64.44;99099.81;2620558;54;20138;-65
2022/05/22 00:31:21;;;;;;;4.05;2.80;;;;;;;13.47;64.55;99110.44;2621340;47;20051;-63
2022/05/22 00:33:54;;;;;;;4.57;3.15;;;;;;;13.47;64.47;99098.97;2621731;47;20026;-63
2022/05/22 00:36:23;;;;;;;4.22;2.40;;;;;;;13.43;64.37;99108.38;2623909;39;20273;-62
2022/05/22 00:38:53;;;;;;;4.75;2.47;;;;;;;13.38;64.41;99104.47;2623095;54;20045;-65
2022/05/22 00:41:23;;;;;;;3.65;2.85;;;;;;;13.38;64.86;99109.78;2624728;47;20030;-65
2022/05/22 00:43:55;;;;;;;4.65;2.90;;;;;;;13.41;64.73;99115.72;2625097;54;20038;-63
2022/05/22 00:46:26;;;;;;;4.68;3.40;;;;;;;13.34;64.76;99111.22;2623610;54;20045;-64
2022/05/22 00:49:03;;;;;;;2.72;2.38;;;;;;;13.35;65.02;99112.88;2621647;47;20023;-64
2022/05/22 00:51:38;;;;;;;3.45;2.60;;;;;;;13.46;64.72;99115.94;2621686;39;20461;-65
2022/05/22 00:54:13;;;;;;;3.50;2.80;;;;;;;13.51;64.39;99108.16;2620891;47;20030;-64
2022/05/22 00:56:49;;;;;;;3.28;2.38;;;;;;;13.54;64.28;99107.75;2620505;47;20030;-64
2022/05/22 00:59:23;;;;;;;3.40;2.50;;;;;;;13.41;64.39;99100.59;2621635;54;20034;-64
2022/05/22 01:01:54;;;;;;;3.47;2.58;;;;;;;13.17;64.70;99099.31;2622321;54;20035;-65
2022/05/22 01:04:29;;;;;;;4.82;2.95;;;;;;;12.99;65.54;99109.72;2622216;47;20537;-64
2022/05/22 01:07:00;;;;;;;3.05;2.75;;;;;;;12.88;66.03;99111.91;2623356;39;20470;-65
2022/05/22 01:09:29;;;;;;;3.33;2.90;;;;;;;12.85;65.91;99111.50;2621862;54;20039;-66
2022/05/22 01:12:05;;;;;;;4.45;2.67;;;;;;;12.74;66.32;99112.91;2621964;54;20082;-65
2022/05/22 01:14:36;;;;;;;3.67;2.53;;;;;;;12.69;66.83;99115.31;2621000;47;20166;-65
2022/05/22 01:17:09;;;;;;;3.40;2.22;;;;;;;12.68;66.67;99102.25;2618965;54;20034;-64
2022/05/22 01:19:42;;;;;;;3.63;2.37;;;;;;;12.64;66.53;99099.19;2619581;39;20551;-64
2022/05/22 01:22:15;;;;;;;4.53;2.58;;;;;;;12.61;66.73;99091.63;2622309;47;20314;-64
2022/05/22 01:24:45;;;;;;;;;;;;;;;12.58;66.43;99078.78;2623112;47;20038;-65
2022/05/22 01:27:19;;;;;;;4.28;2.85;;;;;;;12.58;66.72;99084.09;2623373;54;20038;-66
2022/05/22 01:30:04;;;;;;;3.83;2.30;;;;;;;12.64;66.78;99084.09;2625617;31;20585;-67
2022/05/22 01:32:36;;;;;;;5.47;2.83;;;;;;;12.60;66.80;99084.69;2623768;54;20069;-66
2022/05/22 01:35:10;;;;;;;6.78;2.85;;;;;;;12.47;67.08;99077.50;2624138;39;20440;-64
2022/05/22 01:37:43;;;;;;;4.43;2.40;;;;;;;12.32;67.37;99085.59;2623709;47;20030;-63
2022/05/22 01:40:16;;;;;;;4.68;2.55;;;;;;;12.26;67.98;99086.38;2624531;39;20526;-63
2022/05/22 01:42:48;;;;;;;3.53;2.22;;;;;;;12.24;67.41;99071.69;2623764;54;20046;-63
2022/05/22 01:45:21;;;;;;;5.80;2.75;;;;;;;12.20;68.08;99065.94;2624580;54;20038;-65
2022/05/22 01:47:50;;;;;;;2.00;1.80;;;;;;;12.11;67.92;99067.94;2624114;54;20035;-64
2022/05/22 01:50:23;;;;;;;3.88;2.10;;;;;;;12.07;68.33;99072.00;2623650;47;20022;-63
2022/05/22 01:52:57;;;;;;;2.80;2.10;;;;;;;12.03;68.54;99067.28;2624029;54;20042;-65
2022/05/22 01:55:27;;;;;;;2.58;2.22;;;;;;;12.03;68.37;99068.09;2623672;47;20086;-65
2022/05/22 01:57:58;;;;;;;4.60;2.30;;;;;;;12.01;68.16;99071.97;2623710;54;20030;-63
2022/05/22 02:00:30;;;;;;;6.97;2.60;;;;;;;12.01;68.10;99077.28;2625299;39;20604;-65
2022/05/22 02:03:01;;;;;;;2.42;2.05;;;;;;;11.95;68.50;99078.88;2624618;54;20108;-64
2022/05/22 02:05:34;;;;;;;5.00;2.30;;;;;;;11.92;68.53;99076.63;2623955;54;20053;-68
2022/05/22 02:10:55;;;;;;;4.07;2.45;;;;;;;11.86;68.72;99067.59;2623972;51;20069;-63
2022/05/22 02:13:29;;;;;;;2.20;1.90;;;;;;;11.91;68.84;99061.72;2623347;54;20030;-66
2022/05/22 02:15:59;;;;;;;3.05;2.38;;;;;;;11.93;67.98;99059.72;2623964;54;20042;-66
2022/05/22 02:18:33;;;;;;;2.30;2.10;;;;;;;11.84;68.05;99052.94;2623423;54;20038;-66
2022/05/22 02:21:04;;;;;;;4.28;2.58;;;;;;;11.83;68.95;99049.44;2623954;51;20290;-64
2022/05/22 02:23:38;;;;;;;3.72;2.17;;;;;;;11.82;68.33;99036.38;2624308;54;20038;-64
2022/05/22 02:26:13;;;;;;;4.53;3.10;;;;;;;11.78;68.96;99035.94;2624398;54;20598;-64
2022/05/22 02:28:46;;;;;;;3.53;2.55;;;;;;;11.75;68.67;99038.16;2623993;54;20117;-64
2022/05/22 02:31:17;;;;;;;3.15;2.40;;;;;;;11.73;69.09;99032.25;2622421;47;20137;-64
2022/05/22 02:33:53;;;;;;;3.47;2.38;;;;;;;11.78;69.15;99032.47;2621539;47;20030;-64
2022/05/22 02:36:22;;;;;;;5.75;2.38;;;;;;;11.83;68.79;99030.91;2621490;46;20025;-65
2022/05/22 02:38:57;;;;;;;5.50;2.88;;;;;;;11.88;68.80;99023.22;2622099;46;20069;-65
2022/05/22 02:41:27;;;;;;;3.80;2.80;;;;;;;11.83;68.51;99030.91;2622383;54;20026;-65
2022/05/22 02:44:00;;;;;;;5.60;2.83;;;;;;;11.74;68.96;99018.00;2621126;47;20034;-63
2022/05/22 02:46:29;;;;;;;3.38;2.50;;;;;;;11.70;69.27;99017.56;2622882;31;20471;-63
2022/05/22 02:48:59;;;;;;;5.10;2.33;;;;;;;11.69;69.28;99023.88;2622642;54;20541;-64
2022/05/22 02:51:37;;;;;;;4.13;2.22;;;;;;;11.70;69.00;99020.19;2621055;47;20030;-64
2022/05/22 02:54:09;;;;;;;3.53;2.53;;;;;;;11.77;69.10;99023.72;2622332;54;20031;-63
2022/05/22 02:56:57;;;;;;;4.00;2.67;;;;;;;11.82;68.87;99031.88;2621520;47;20126;-65
2022/05/22 02:59:35;;;;;;;2.40;2.20;;;;;;;11.85;69.07;99038.66;2622817;54;20042;-64
2022/05/22 03:02:12;;;;;;;2.50;2.30;;;;;;;11.55;69.39;99035.38;2623599;54;20039;-64
2022/05/22 03:04:44;;;;;;;4.10;2.20;;;;;;;11.65;69.74;99026.09;2622231;47;20033;-62
2022/05/22 03:07:18;;;;;;;5.40;2.47;;;;;;;11.66;69.14;99021.59;2619150;54;20034;-63
2022/05/22 03:09:52;;;;;;;2.65;2.20;;;;;;;11.62;69.35;99010.56;2619501;39;20407;-64
2022/05/22 03:12:23;;;;;;;4.50;2.70;;;;;;;11.61;69.49;99016.06;2621691;47;20133;-64
2022/05/22 03:14:59;;;;;;;5.88;2.33;;;;;;;11.59;69.43;99008.34;2621470;47;20030;-64
2022/05/22 03:17:32;;;;;;;3.50;2.35;;;;;;;11.60;69.73;99003.84;2621223;54;20030;-64
2022/05/22 03:20:03;;;;;;;2.50;2.30;;;;;;;11.64;69.47;99002.47;2619605;47;20050;-63
2022/05/22 03:22:36;;;;;;;3.20;2.20;;;;;;;11.62;68.92;99001.81;2618956;47;20074;-64
2022/05/22 03:25:11;;;;;;;4.00;2.10;;;;;;;11.58;69.25;99000.56;2619357;47;20141;-64
2022/05/22 03:27:43;;;;;;;4.75;2.38;;;;;;;11.56;69.29;99003.44;2619055;47;20049;-64
2022/05/22 03:30:15;;;;;;;2.97;2.33;;;;;;;11.59;69.23;99000.41;2619591;54;20062;-64
2022/05/22 03:32:49;;;;;;;3.30;2.42;;;;;;;11.45;69.03;98997.84;2619766;54;20038;-64
2022/05/22 03:35:19;;;;;;;2.25;2.00;;;;;;;11.33;69.24;98994.91;2619837;54;20038;-65
2022/05/22 03:37:56;;;;;;;5.03;2.33;;;;;;;11.30;69.71;98996.09;2622106;47;20035;-65
2022/05/22 03:40:29;;;;;;;4.45;2.40;;;;;;;11.28;69.70;98995.50;2623382;47;20034;-65
2022/05/22 03:43:00;;;;;;;4.15;2.20;;;;;;;11.25;69.96;98995.88;2623914;47;20026;-64
2022/05/22 03:45:29;;;;;;;2.20;2.10;;;;;;;11.18;69.94;99010.88;2623414;54;20538;-65
2022/05/22 03:47:59;;;;;;;3.38;2.20;;;;;;;11.25;70.52;99006.44;2620868;47;20079;-64
2022/05/22 03:50:29;;;;;;;2.80;2.22;;;;;;;11.18;70.17;99010.03;2623128;54;20149;-66
2022/05/22 03:52:59;;;;;;;4.05;2.22;;;;;;;11.14;70.70;98991.94;2623193;54;20113;-65
2022/05/22 03:55:42;;;;;;;3.05;2.53;;;;;;;11.30;70.36;99004.03;2621724;47;20053;-64
2022/05/22 03:58:13;;;;;;;2.72;2.38;;;;;;;11.38;70.10;98995.13;2622086;47;20027;-64
2022/05/22 04:00:44;;;;;;;2.83;2.55;;;;;;;11.45;70.12;98996.00;2621767;47;20033;-66
2022/05/22 04:03:14;;;;;;;3.95;2.85;;;;;;;11.56;70.33;98990.19;2621452;47;20560;-64
2022/05/22 04:05:44;;;;;;;3.80;2.70;;;;;;;11.74;69.62;98988.84;2620692;54;20037;-64
2022/05/22 04:08:14;;;;;;;2.78;2.15;;;;;;;11.87;69.24;98981.81;2618689;54;20038;-64
2022/05/22 04:10:55;;;;;;;4.90;3.10;;;;;;;12.03;68.99;98975.38;2620932;54;20034;-64
2022/05/22 04:13:25;;;;;;;2.63;2.22;;;;;;;12.07;67.90;98978.44;2623911;47;20060;-64
2022/05/22 04:15:56;;;;;;;3.67;2.70;;;;;;;12.06;67.91;98976.81;2623969;54;20083;-63
2022/05/22 04:18:27;;;;;;;5.88;2.90;;;;;;;11.89;68.50;98973.69;2623795;47;20033;-64
2022/05/22 04:20:57;;;;;;;2.78;2.55;;;;;;;12.10;68.65;98973.56;2624317;54;20034;-65
2022/05/22 04:26:38;;;;;;;4.57;2.67;;;;;;;12.41;67.62;98966.97;2621744;47;20033;-64
2022/05/22 04:29:12;;;;;;;4.00;2.25;;;;;;;12.52;66.76;98960.22;2622266;47;20034;-65
2022/05/22 04:31:43;;;;;;;2.35;2.15;;;;;;;12.53;66.70;98959.22;2622634;54;20069;-64
2022/05/22 04:34:20;;;;;;;2.55;2.22;;;;;;;12.46;66.58;98961.88;2622130;47;20542;-65
2022/05/22 04:36:50;;;;;;;3.63;2.70;;;;;;;12.53;66.64;98953.91;2621942;54;20042;-62
2022/05/22 04:39:38;;;;;;;4.70;2.75;;;;;;;12.40;66.05;98955.50;2621073;54;20046;-64
2022/05/22 04:42:16;;;;;;;3.95;2.10;;;;;;;12.34;67.05;98951.03;2620910;39;20437;-65
2022/05/22 04:44:46;;;;;;;3.08;2.40;;;;;;;12.35;66.49;98944.69;2620120;54;20158;-64
2022/05/22 04:47:41;;;;;;;2.63;2.30;;;;;;;12.39;66.96;98939.81;2620620;39;20443;-63
2022/05/22 04:50:35;;;;;;;4.10;2.53;;;;;;;12.52;66.92;98937.19;2620475;54;20065;-66
2022/05/22 04:53:26;;;;;;;4.28;2.70;;;;;;;12.56;66.47;98927.81;2620679;54;20073;-65
2022/05/22 04:56:08;;;;;;;5.43;3.03;;;;;;;12.59;66.16;98927.41;2620264;54;20027;-65
2022/05/22 04:58:47;;;;;;;3.00;2.17;;;;;;;12.67;65.83;98933.53;2619505;54;20033;-65
2022/05/22 05:01:19;;;;;;;3.05;2.25;;;;;;;12.65;66.38;98928.41;2621339;54;20198;-65
2022/05/22 05:04:03;;;;;;;2.50;1.92;;;;;;;12.81;66.54;98930.69;2622164;47;20022;-64
2022/05/22 05:06:46;;;;;;;4.45;2.45;;;;;;;12.95;65.82;98928.03;2624073;54;20037;-64
2022/05/22 05:09:38;;;;;;;5.25;2.72;;;;;;;12.97;65.16;98934.75;2624000;47;20069;-64
2022/05/22 05:12:16;;;;;;;2.70;2.08;;;;;;;12.94;65.67;98939.66;2623614;54;20034;-63
2022/05/22 05:14:48;;;;;;;7.38;2.90;;;;;;;12.98;65.74;98940.88;2624310;39;20423;-64
2022/05/22 05:17:20;;;;;;;3.72;2.30;;;;;;;13.05;65.36;98950.47;2623962;54;20049;-63
2022/05/22 05:19:51;;;;;;;3.45;2.25;;;;;;;13.11;65.32;98948.84;2623236;47;20045;-65
2022/05/22 05:22:21;;;;;;;4.38;2.28;;;;;;;13.30;65.61;98950.69;2623977;39;20455;-64
2022/05/22 05:25:01;;;;;;;2.55;2.30;;;;;;;13.41;65.30;98954.56;2623534;39;20431;-64
2022/05/22 05:27:33;;;;;;;3.72;2.38;;;;;;;13.47;65.06;98959.06;2623301;54;20146;-64
2022/05/22 05:30:18;;;;;;;4.28;2.50;;;;;;;13.52;64.49;98958.44;2623586;47;20034;-64
2022/05/22 05:32:49;;;;;;;2.65;2.45;;;;;;;13.58;64.66;98957.59;2626004;39;20403;-64
2022/05/22 05:35:37;;;;;;;5.55;3.35;;;;;;;13.68;64.78;98954.50;2623036;54;20038;-64
2022/05/22 05:38:09;;;;;;;3.33;2.28;;;;;;;13.79;64.55;98957.31;2622912;47;20033;-64
2022/05/22 05:40:41;;;;;;;3.75;2.05;;;;;;;13.84;63.87;98964.69;2623799;39;20497;-66
2022/05/22 05:43:15;;;;;;;5.78;2.47;;;;;;;13.86;64.40;98966.09;2623334;54;20026;-65
2022/05/22 05:45:48;;;;;;;3.03;2.33;;;;;;;13.92;64.39;98974.25;2624055;54;20038;-63
2022/05/22 05:48:17;;;;;;;3.53;2.70;;;;;;;13.98;64.40;98973.41;2624074;47;20042;-64
2022/05/22 05:50:55;;;;;;;4.80;2.75;;;;;;;14.07;64.42;98972.97;2623555;54;20034;-63
2022/05/22 05:53:44;;;;;;;3.47;2.88;;;;;;;14.18;64.25;98962.69;2623417;46;20022;-62
2022/05/22 05:56:32;;;;;;;4.82;2.63;;;;;;;14.26;64.17;98963.28;2626011;39;20214;-63
2022/05/22 05:59:21;;;;;;;3.90;2.40;;;;;;;14.29;63.71;98973.50;2622820;47;20041;-64
2022/05/22 06:02:02;;;;;;;3.05;2.40;;;;;;;14.32;63.68;98961.59;2622489;47;20174;-65
2022/05/22 06:04:32;;;;;;;3.10;2.70;;;;;;;14.45;63.99;98955.38;2622902;39;20077;-63
2022/05/22 06:07:02;;;;;;;4.22;2.50;;;;;;;14.53;63.75;98953.34;2622691;54;20034;-63
2022/05/22 06:09:31;;;;;;;5.32;2.75;;;;;;;14.67;63.73;98947.94;2622478;54;20033;-65
2022/05/22 06:12:24;;;;;;;3.13;2.22;;;;;;;14.78;63.43;98953.38;2621947;47;20034;-64
2022/05/22 06:15:05;;;;;;;3.80;2.33;;;;;;;14.89;62.59;98951.03;2622118;47;20026;-63
2022/05/22 06:17:43;;;;;;;3.97;2.63;;;;;;;14.98;62.56;98955.88;2622561;54;20137;-65
2022/05/22 06:20:20;;;;;;;4.05;3.10;;;;;;;15.03;61.92;98958.72;2622523;47;20038;-63
2022/05/22 06:22:50;;;;;;;4.43;2.97;;;;;;;15.03;62.05;98953.38;2622606;47;20566;-63
2022/05/22 06:25:39;;;;;;;3.92;2.63;;;;;;;15.17;61.94;98954.06;2622509;54;20046;-63
2022/05/22 06:28:27;;;;;;;4.20;2.95;;;;;;;15.22;61.89;98959.56;2622143;54;20506;-63
2022/05/22 06:31:32;;;;;;;4.80;3.60;;;;;;;15.30;61.72;98959.28;2620840;54;20034;-63
2022/05/22 06:34:29;;;;;;;3.90;3.22;;;;;;;15.32;61.59;98956.41;2620659;54;20070;-64
2022/05/22 06:37:13;;;;;;;5.85;3.22;;;;;;;15.43;61.30;98957.50;2620953;47;20091;-64
2022/05/22 06:40:03;;;;;;;5.70;3.10;;;;;;;15.49;61.36;98953.97;2621201;47;20165;-64
2022/05/22 06:42:51;;;;;;;3.58;2.95;;;;;;;15.50;61.44;98955.59;2622261;54;20133;-64
2022/05/22 06:46:00;;;;;;;5.38;2.83;;;;;;;15.57;61.51;98943.03;2622447;47;20061;-64
2022/05/22 06:49:02;;;;;;;4.47;3.15;;;;;;;15.80;61.49;98942.41;2621584;46;20057;-63
2022/05/22 06:51:56;;;;;;;8.63;3.13;;;;;;;16.02;60.89;98932.09;2623000;54;20039;-65
2022/05/22 06:55:06;;;;;;;6.10;3.30;;;;;;;16.15;60.45;98925.78;2620489;54;20149;-64
2022/05/22 06:57:47;;;;;;;2.88;2.67;;;;;;;16.23;60.02;98934.28;2620214;39;20376;-64
2022/05/22 07:00:27;;;;;;;3.67;2.33;;;;;;;16.32;60.28;98932.91;2621549;54;20037;-65
2022/05/22 07:03:15;;;;;;;7.75;2.80;;;;;;;16.29;60.02;98930.72;2622615;54;20045;-65
2022/05/22 07:06:03;;;;;;;3.10;2.42;;;;;;;16.32;59.75;98940.09;2622332;54;20642;-64
2022/05/22 07:08:52;;;;;;;10.57;8.23;;;;;;;16.44;60.18;98938.28;2621205;47;20050;-64
2022/05/22 07:11:54;;;;;;;3.38;2.20;;;;;;;16.57;59.72;98930.09;2620830;54;20034;-65
2022/05/22 07:14:50;;;;;;;3.50;2.45;;;;;;;16.69;59.88;98929.31;2621893;54;20069;-65
2022/05/22 07:17:39;;;;;;;3.85;3.17;;;;;;;16.79;59.12;98921.59;2621601;54;20057;-64
2022/05/22 07:20:27;;;;;;;2.97;2.33;;;;;;;16.84;59.31;98919.03;2621963;54;20065;-65
2022/05/22 07:23:13;;;;;;;3.97;2.47;;;;;;;16.85;58.90;98920.66;2620998;54;20038;-64
2022/05/22 07:26:00;;;;;;;4.55;2.08;;;;;;;16.88;58.78;98922.88;2621818;39;20768;-63
2022/05/22 07:28:47;;;;;;;3.22;2.88;;;;;;;17.01;58.83;98919.97;2622217;39;20465;-63
2022/05/22 07:31:32;;;;;;;6.60;3.90;;;;;;;17.25;58.21;98915.44;2622006;39;20493;-65
2022/05/22 07:34:20;;;;;;;7.03;3.33;;;;;;;17.43;57.74;98919.03;2621626;54;20061;-63
2022/05/22 07:36:50;;;;;;;4.07;2.60;;;;;;;17.56;57.03;98922.28;2621791;54;20038;-66
2022/05/22 07:39:39;;;;;;;5.53;2.67;;;;;;;17.65;56.70;98911.22;2621494;46;20068;-66
2022/05/22 07:42:25;;;;;;;4.32;2.78;;;;;;;17.67;56.29;98909.13;2620246;47;20569;-65
2022/05/22 07:45:17;;;;;;;3.20;2.70;;;;;;;17.83;54.65;98903.06;2621264;54;20031;-68
2022/05/22 07:48:09;;;;;;;4.18;2.42;;;;;;;17.83;55.10;98895.03;2621153;54;20045;-67
2022/05/22 07:51:00;;;;;;;11.88;8.55;;;;;;;17.94;54.72;98888.03;2621246;54;20038;-66
2022/05/22 07:53:48;;;;;;;7.07;4.43;;;;;;;18.12;54.28;98882.50;2621297;54;20037;-66
2022/05/22 07:56:43;;;;;;;4.53;2.67;;;;;;;18.26;53.02;98886.50;2620770;54;20038;-63
2022/05/22 07:59:31;;;;;;;4.72;2.45;;;;;;;18.43;52.75;98867.81;2621320;54;20034;-65
2022/05/22 08:02:19;;;;;;;4.38;2.67;;;;;;;18.55;52.93;98870.41;2620361;47;20034;-64
2022/05/22 08:04:52;;;;;;;;;;;;;;;18.55;52.53;98863.19;2619909;54;20030;-63
2022/05/22 08:07:37;;;;;;;6.93;2.47;;;;;;;18.61;52.56;98864.06;2619445;54;20034;-66
2022/05/22 08:10:22;;;;;;;5.30;3.35;;;;;;;18.74;51.82;98861.13;2619159;47;20040;-64
2022/05/22 08:12:56;;;;;;;3.40;2.33;;;;;;;18.72;50.95;98863.22;2619073;54;20030;-64
2022/05/22 08:15:33;;;;;;;2.78;1.85;;;;;;;18.74;50.27;98858.44;2620429;39;20414;-64
2022/05/22 08:18:15;;;;;;;3.25;2.00;;;;;;;18.80;50.13;98852.09;2621027;39;20445;-64
2022/05/22 08:20:47;;;;;;;3.30;2.22;;;;;;;18.84;49.86;98851.63;2619479;54;20045;-66
2022/05/22 08:23:20;;;;;;;;;;;;;;;18.92;49.95;98849.31;2619194;54;20069;-66
2022/05/22 08:25:55;;;;;;;2.90;2.10;;;;;;;19.10;49.21;98848.22;2619353;54;19939;-66
2022/05/22 08:28:27;;;;;;;3.67;2.08;;;;;;;19.21;48.76;98844.63;2619730;54;20034;-65
2022/05/22 08:31:00;;;;;;;2.97;2.03;;;;;;;19.36;48.29;98844.03;2619344;54;20061;-64
2022/05/22 08:33:29;;;;;;;4.70;2.15;;;;;;;19.43;47.88;98836.63;2620110;54;20069;-67
2022/05/22 08:36:01;;;;;;;4.30;2.38;;;;;;;19.62;48.35;98839.81;2620927;54;20037;-64
2022/05/22 08:38:30;;;;;;;3.00;1.95;;;;;;;19.74;47.00;98839.69;2620261;54;20026;-65
2022/05/22 08:41:06;;;;;;;4.47;2.40;;;;;;;19.83;47.04;98840.84;2621492;39;20446;-65
2022/05/22 08:43:38;;;;;;;3.25;1.85;;;;;;;19.98;46.92;98829.50;2620166;54;20038;-67
2022/05/22 08:46:15;;;;;;;4.72;2.05;;;;;;;20.12;46.46;98830.69;2620569;54;20039;-67
2022/05/22 08:48:50;;;;;;;4.35;2.20;;;;;;;20.31;45.57;98825.78;2619948;54;20026;-67
2022/05/22 08:51:28;;;;;;;3.22;1.95;;;;;;;20.35;46.43;98823.41;2619766;54;20027;-65
2022/05/22 08:54:01;;;;;;;2.92;2.17;;;;;;;20.41;46.00;98814.28;2619566;54;20030;-65
2022/05/22 08:59:24;;;;;;;4.32;1.90;;;;;;;20.33;45.37;98804.03;2620343;47;20035;-66
2022/05/22 09:02:00;;;;;;;5.53;2.20;;;;;;;20.25;45.38;98806.13;2620902;39;20408;-66
2022/05/22 09:04:37;;;;;;;4.28;2.30;;;;;;;20.23;44.95;98802.88;2620857;54;20579;-66
2022/05/22 09:07:14;;;;;;;2.83;2.00;;;;;;;20.38;45.04;98796.03;2620315;54;20038;-66
2022/05/22 09:09:46;;;;;;;4.43;3.30;;;;;;;20.45;45.66;98799.28;2621099;54;20030;-66
2022/05/22 09:12:28;;;;;;;3.95;1.83;;;;;;;20.54;45.28;98795.13;2620598;47;20539;-66
2022/05/22 09:15:05;;;;;;;2.20;1.60;;;;;;;20.58;44.87;98798.91;2619856;54;20027;-66
2022/05/22 09:17:45;;;;;;;2.60;1.60;;;;;;;20.55;44.15;98799.41;2620398;54;20113;-65
2022/05/22 09:20:20;;;;;;;6.05;3.97;;;;;;;20.65;44.81;98791.41;2618989;47;20026;-65
2022/05/22 09:23:07;;;;;;;3.28;1.73;;;;;;;20.81;44.59;98788.84;2621264;54;20045;-65
2022/05/22 09:25:47;;;;;;;5.32;2.28;;;;;;;20.96;43.74;98791.63;2619619;54;20131;-64
2022/05/22 09:28:25;;;;;;;3.35;1.75;;;;;;;20.81;43.58;98791.53;2619926;54;20570;-64
2022/05/22 09:31:06;;;;;;;10.75;2.13;;;;;;;20.79;42.99;98783.75;2622075;51;20041;-66
2022/05/22 09:33:45;;;;;;;5.25;1.88;;;;;;;20.91;42.43;98778.97;2622311;54;20035;-65
2022/05/22 09:36:28;;;;;;;3.13;2.05;;;;;;;20.97;42.35;98779.78;2621935;54;20030;-65
2022/05/22 09:39:34;;;;;;;3.40;1.50;;;;;;;21.07;42.32;98779.06;2622110;54;20046;-66
2022/05/22 09:42:13;;;;;;;3.45;1.90;;;;;;;21.18;41.27;98773.44;2620661;46;20077;-65
2022/05/22 09:45:00;;;;;;;2.00;1.75;;;;;;;21.22;41.09;98774.53;2619564;54;20026;-63
2022/05/22 09:47:51;;;;;;;2.65;1.63;;;;;;;21.24;40.62;98766.22;2619357;54;20038;-64
2022/05/22 09:50:53;;;;;;;5.43;3.85;;;;;;;21.34;41.12;98765.47;2620483;47;20511;-65
2022/05/22 09:53:35;;;;;;;2.42;1.55;;;;;;;21.34;39.98;98757.41;2621356;51;20030;-65
2022/05/22 09:56:16;;;;;;;3.17;1.58;;;;;;;21.58;39.88;98753.19;2619525;54;20031;-64
2022/05/22 09:59:10;;;;;;;2.72;1.10;;;;;;;21.82;39.86;98745.44;2618714;47;20057;-64
2022/05/22 10:01:45;;;;;;;3.13;1.60;;;;;;;21.95;39.18;98744.91;2620322;54;20050;-65
2022/05/22 10:04:33;;;;;;;1.98;1.48;;;;;;;21.86;38.58;98738.44;2619954;54;20030;-66
2022/05/22 10:07:16;;;;;;;2.88;1.65;;;;;;;21.87;38.00;98733.84;2617937;54;20030;-67
2022/05/22 10:09:55;;;;;;;4.10;1.67;;;;;;;21.81;38.02;98726.88;2621132;39;20422;-66
2022/05/22 10:12:38;;;;;;;2.75;1.42;;;;;;;21.75;38.03;98726.84;2620227;54;20042;-66
2022/05/22 10:15:23;;;;;;;4.97;1.77;;;;;;;21.79;37.50;98727.13;2620114;54;20030;-66
2022/05/22 10:18:09;;;;;;;2.53;1.75;;;;;;;21.85;37.36;98712.59;2618806;54;20046;-66
2022/05/22 10:20:51;;;;;;;3.05;2.38;;;;;;;21.87;37.40;98721.19;2619913;54;20034;-66
2022/05/22 10:23:36;;;;;;;2.95;1.60;;;;;;;21.95;37.23;98723.38;2620459;39;20471;-65
2022/05/22 10:26:21;;;;;;;3.03;1.50;;;;;;;21.97;36.91;98718.53;2620363;39;20419;-63
2022/05/22 10:28:58;;;;;;;3.20;1.60;;;;;;;22.07;36.46;98717.72;2620179;54;20077;-65
2022/05/22 10:31:40;;;;;;;3.33;1.48;;;;;;;22.16;36.54;98708.03;2620009;39;20738;-67
2022/05/22 10:34:16;;;;;;;2.25;1.50;;;;;;;22.24;36.31;98704.00;2620038;39;20438;-69
2022/05/22 10:36:52;;;;;;;2.47;1.13;;;;;;;22.29;36.03;98705.88;2620967;54;20022;-67
2022/05/22 10:39:26;;;;;;;3.55;1.20;;;;;;;22.37;35.41;98705.31;2621120;54;20026;-64
2022/05/22 10:44:54;;;;;;;2.20;1.40;;;;;;;22.64;34.78;98683.47;2621699;54;20538;-66
2022/05/22 10:47:35;;;;;;;2.70;1.65;;;;;;;22.86;34.36;98681.25;2620639;54;20138;-66
2022/05/22 10:50:18;;;;;;;1.73;1.13;;;;;;;23.03;33.85;98672.84;2619925;54;20030;-67
2022/05/22 10:52:48;;;;;;;3.45;1.17;;;;;;;23.13;34.30;98677.38;2619224;47;20035;-67
2022/05/22 10:55:34;;;;;;;2.92;1.73;;;;;;;23.17;34.25;98660.34;2619885;54;20038;-66
2022/05/22 10:58:08;;;;;;;3.95;1.80;;;;;;;23.18;33.55;98664.66;2620059;54;20038;-67
2022/05/22 11:00:38;;;;;;;4.72;1.65;;;;;;;23.20;33.40;98665.19;2620827;54;20731;-67
2022/05/22 11:03:13;;;;;;;2.97;1.20;;;;;;;23.00;33.33;98676.09;2620637;54;20093;-66
2022/05/22 11:05:51;;;;;;;3.63;1.52;;;;;;;23.13;33.74;98666.59;2621130;54;20057;-66
2022/05/22 11:08:30;;;;;;;2.42;1.30;;;;;;;23.15;33.36;98662.53;2621100;54;20034;-65
2022/05/22 11:11:13;;;;;;;3.95;1.33;;;;;;;23.10;33.94;98651.75;2621204;54;20031;-66
2022/05/22 11:13:45;;;;;;;2.47;1.33;;;;;;;23.28;33.56;98644.94;2619939;54;20531;-67
2022/05/22 11:16:17;;;;;;;4.20;1.20;;;;;;;23.42;32.82;98639.69;2619153;54;20027;-68
2022/05/22 11:18:48;;;;;;;2.30;1.50;;;;;;;23.53;33.32;98645.84;2618373;54;20027;-68
2022/05/22 11:21:30;;;;;;;10.35;1.80;;;;;;;23.62;33.60;98639.56;2618703;54;20061;-67
2022/05/22 11:24:16;;;;;;;1.73;1.50;;;;;;;23.54;33.21;98640.16;2618807;54;20062;-67
2022/05/22 11:27:00;;;;;;;2.70;1.40;;;;;;;23.54;33.38;98644.75;2619850;54;20030;-65
2022/05/22 11:29:37;;;;;;;;;;;;;;;23.58;34.01;98640.41;2618850;54;20034;-69
2022/05/22 11:32:14;;;;;;;3.40;1.50;;;;;;;23.60;33.59;98633.66;2618332;54;19953;-68
2022/05/22 11:35:12;;;;;;;2.30;1.40;;;;;;;23.64;33.33;98640.09;2618521;54;20033;-67
2022/05/22 11:37:55;;;;;;;3.95;1.48;;;;;;;23.67;32.86;98641.44;2620078;54;20027;-68
2022/05/22 11:40:35;;;;;;;2.65;1.38;;;;;;;23.71;32.17;98637.88;2618445;54;20126;-68
2022/05/22 11:43:24;;;;;;;3.25;1.25;;;;;;;23.66;32.77;98627.13;2619217;54;20038;-65
2022/05/22 11:46:02;;;;;;;3.35;2.35;;;;;;;23.71;32.32;98626.28;2620458;54;20038;-65
2022/05/22 11:48:52;;;;;;;2.40;1.42;;;;;;;23.75;31.75;98621.94;2620533;54;20035;-65
2022/05/22 11:51:42;;;;;;;4.40;1.30;;;;;;;23.92;30.67;98616.13;2620479;54;20041;-66
2022/05/22 11:54:41;;;;;;;2.55;1.20;;;;;;;23.85;30.73;98610.25;2619912;54;20026;-65
2022/05/22 11:57:32;;;;;;;1.80;1.15;;;;;;;23.86;30.66;98593.78;2620819;39;20442;-66
2022/05/22 12:00:17;;;;;;;2.25;1.17;;;;;;;23.96;30.00;98585.59;2618385;47;20034;-68
2022/05/22 12:03:17;;;;;;;1.73;1.30;;;;;;;24.15;29.85;98577.53;2618146;54;20073;-68
2022/05/22 12:06:05;;;;;;;1.15;0.95;;;;;;;24.29;29.76;98574.16;2618605;54;20033;-66
2022/05/22 12:08:49;;;;;;;1.63;1.20;;;;;;;24.23;29.73;98566.13;2620525;39;20482;-66
2022/05/22 12:11:29;;;;;;;1.58;1.13;;;;;;;24.30;29.42;98563.06;2619063;54;20049;-68
2022/05/22 12:14:06;;;;;;;2.22;1.30;;;;;;;24.42;29.78;98565.41;2618318;54;20034;-67
2022/05/22 12:16:44;;;;;;;4.00;2.10;;;;;;;24.54;29.68;98559.59;2619188;54;20034;-65
2022/05/22 12:19:22;;;;;;;2.08;1.50;;;;;;;24.62;29.45;98556.25;2619888;54;20547;-65
2022/05/22 12:22:03;;;;;;;2.13;1.20;;;;;;;24.65;28.92;98556.44;2619329;46;20057;-65
2022/05/22 12:24:43;;;;;;;1.35;1.00;;;;;;;24.71;29.10;98551.78;2618396;54;20038;-65
2022/05/22 12:27:22;;;;;;;2.38;1.48;;;;;;;24.92;29.37;98555.00;2619072;47;20511;-66
2022/05/22 12:30:06;;;;;;;1.50;1.10;;;;;;;25.15;29.04;98542.53;2620125;39;20450;-66
2022/05/22 12:32:44;;;;;;;3.28;1.27;;;;;;;25.27;29.10;98545.59;2619584;54;20043;-65
2022/05/22 12:35:16;;;;;;;1.30;1.20;;;;;;;25.28;29.02;98528.25;2619971;54;20018;-65
2022/05/22 12:37:49;;;;;;;2.25;1.45;;;;;;;25.35;29.31;98522.44;2619601;54;20033;-67
2022/05/22 12:40:45;;;;;;;2.10;1.40;;;;;;;25.62;29.04;98525.22;2618423;54;20026;-68